Buckeye Lake, Ohio
Current Conditions -  °F | °C
As of 9:54 PM on Friday 21 Nov 2014 (Local Time) from KVTA Reporting Station
Clear Clear  
Wind Chill: 10°   Ceiling: Unl
Heat Index: 10°   Visibility: 9mi
Dew Point:   Wind: 3mph
Humidity: 84%   Direction: 260°W
Pressure: 30.43"   Gusts: NA
Location:  39.93°N, 82.47°W
Report Text: KVTA 220254Z AUTO 26003KT 9SM CLR M12/M14 A3043 RMK AO2 SLP322 T11221144 58010
Loading
Personal Weather Stations






























Interactive Weather Map New forecast layout! Learn more

10-Day Weather Forecast

Advertisements
Track Severe Weather on mobile